Time,TemperatureF,DewpointF,PressureIn,WindDirection,WindDirectionDegrees,WindSpeedMPH,WindSpeedGustMPH,Humidity,HourlyPrecipIn,Conditions,Clouds,dailyrainin,SoftwareType,DateUTC
2013-05-12 00:02:00,58.0,36.0,30.23,NNW,328,0.0,-999.0,44,-99.99,,,-99.99,,2013-05-12 05:02:00,
2013-05-12 00:11:00,58.0,36.0,30.23,NNW,328,0.0,-999.0,44,-99.99,,,-99.99,,2013-05-12 05:11:00,
2013-05-12 00:22:00,58.0,37.0,30.24,NNW,329,0.0,-999.0,45,-99.99,,,-99.99,,2013-05-12 05:22:00,
2013-05-12 00:32:00,57.0,36.0,30.24,NNW,329,0.0,-999.0,46,-99.99,,,-99.99,,2013-05-12 05:32:00,
2013-05-12 00:42:00,57.0,36.0,30.24,NNW,329,0.0,-999.0,46,-99.99,,,-99.99,,2013-05-12 05:42:00,
2013-05-12 00:52:00,56.0,37.0,30.24,NNW,329,0.0,-999.0,49,-99.99,,,-99.99,,2013-05-12 05:52:00,
2013-05-12 01:01:00,56.0,38.0,30.24,NNW,329,0.0,-999.0,50,-99.99,,,-99.99,,2013-05-12 06:01:00,
2013-05-12 01:11:00,55.0,39.0,30.24,NNW,329,0.0,-999.0,54,-99.99,,,-99.99,,2013-05-12 06:11:00,
2013-05-12 01:21:00,55.0,39.0,30.24,NNW,329,0.0,-999.0,54,-99.99,,,-99.99,,2013-05-12 06:21:00,
2013-05-12 01:32:00,54.0,39.0,30.24,NW,326,0.0,-999.0,56,-99.99,,,-99.99,,2013-05-12 06:32:00,
2013-05-12 01:42:00,53.0,39.0,30.25,NW,326,0.0,-999.0,60,-99.99,,,-99.99,,2013-05-12 06:42:00,
2013-05-12 01:52:00,53.0,39.0,30.25,NW,326,0.0,-999.0,60,-99.99,,,-99.99,,2013-05-12 06:52:00,
2013-05-12 02:01:00,53.0,39.0,30.25,NW,326,0.0,-999.0,59,-99.99,,,-99.99,,2013-05-12 07:01:00,
2013-05-12 02:11:00,52.0,39.0,30.24,NW,325,0.0,-999.0,61,-99.99,,,-99.99,,2013-05-12 07:11:00,
2013-05-12 02:21:00,52.0,39.0,30.24,NW,325,0.0,-999.0,61,-99.99,,,-99.99,,2013-05-12 07:21:00,
2013-05-12 02:32:00,52.0,39.0,30.24,NW,325,0.0,-999.0,62,-99.99,,,-99.99,,2013-05-12 07:32:00,
2013-05-12 02:42:00,52.0,39.0,30.24,NW,325,0.0,-999.0,62,-99.99,,,-99.99,,2013-05-12 07:42:00,
2013-05-12 02:52:00,53.0,38.0,30.25,NW,318,0.0,-999.0,57,-99.99,,,-99.99,,2013-05-12 07:52:00,
2013-05-12 03:02:00,53.0,38.0,30.25,NW,318,0.0,-999.0,56,-99.99,,,-99.99,,2013-05-12 08:02:00,
2013-05-12 03:11:00,52.0,37.0,30.25,NW,318,0.0,-999.0,57,-99.99,,,-99.99,,2013-05-12 08:11:00,
2013-05-12 03:21:00,52.0,37.0,30.25,NW,318,0.0,-999.0,57,-99.99,,,-99.99,,2013-05-12 08:21:00,
2013-05-12 03:32:00,52.0,38.0,30.25,NW,318,0.0,-999.0,58,-99.99,,,-99.99,,2013-05-12 08:32:00,
2013-05-12 03:41:00,52.0,38.0,30.25,NW,318,0.0,-999.0,58,-99.99,,,-99.99,,2013-05-12 08:41:00,
2013-05-12 03:53:00,50.0,37.0,30.24,NW,318,0.0,-999.0,61,-99.99,,,-99.99,,2013-05-12 08:53:00,
2013-05-12 04:01:00,50.0,37.0,30.24,NW,318,0.0,-999.0,61,-99.99,,,-99.99,,2013-05-12 09:01:00,
2013-05-12 04:11:00,51.0,36.0,30.24,NW,319,0.0,-999.0,56,-99.99,,,-99.99,,2013-05-12 09:11:00,
2013-05-12 04:21:00,51.0,36.0,30.24,NW,319,0.0,-999.0,56,-99.99,,,-99.99,,2013-05-12 09:21:00,
2013-05-12 04:33:00,51.0,36.0,30.24,NW,319,0.0,-999.0,56,-99.99,,,-99.99,,2013-05-12 09:33:00,
2013-05-12 04:42:00,51.0,36.0,30.24,NW,319,0.0,-999.0,56,-99.99,,,-99.99,,2013-05-12 09:42:00,
2013-05-12 04:53:00,50.0,36.0,30.24,NW,319,0.0,-999.0,58,-99.99,,,-99.99,,2013-05-12 09:53:00,
2013-05-12 05:03:00,50.0,36.0,30.24,NW,319,0.0,-999.0,59,-99.99,,,-99.99,,2013-05-12 10:03:00,
2013-05-12 05:12:00,48.0,36.0,30.24,NW,319,0.0,-999.0,62,-99.99,,,-99.99,,2013-05-12 10:12:00,
2013-05-12 05:22:00,48.0,36.0,30.24,NW,319,0.0,-999.0,62,-99.99,,,-99.99,,2013-05-12 10:22:00,
2013-05-12 05:33:00,48.0,36.0,30.24,NW,319,0.0,-999.0,62,-99.99,,,-99.99,,2013-05-12 10:33:00,
2013-05-12 05:42:00,48.0,36.0,30.24,NW,319,0.0,-999.0,62,-99.99,,,-99.99,,2013-05-12 10:42:00,
2013-05-12 05:52:00,47.0,37.0,30.24,North,-999,-999.0,-999.0,68,-99.99,,,-99.99,,2013-05-12 10:52:00,
2013-05-12 06:02:00,48.0,36.0,30.24,NW,319,0.0,-999.0,62,-99.99,,,-99.99,,2013-05-12 11:02:00,
2013-05-12 06:12:00,48.0,36.0,30.24,NW,319,0.0,-999.0,62,-99.99,,,-99.99,,2013-05-12 11:12:00,
2013-05-12 06:21:00,48.0,37.0,30.24,NW,319,0.0,-999.0,66,-99.99,,,-99.99,,2013-05-12 11:21:00,
2013-05-12 06:32:00,47.0,37.0,30.24,NW,319,0.0,-999.0,68,-99.99,,,-99.99,,2013-05-12 11:32:00,
2013-05-12 06:42:00,47.0,37.0,30.24,NW,319,0.0,-999.0,69,-99.99,,,-99.99,,2013-05-12 11:42:00,
2013-05-12 06:52:00,47.0,37.0,30.24,NW,319,0.0,-999.0,69,-99.99,,,-99.99,,2013-05-12 11:52:00,
2013-05-12 07:01:00,46.0,37.0,30.24,NW,319,0.0,-999.0,72,-99.99,,,-99.99,,2013-05-12 12:01:00,
2013-05-12 07:11:00,48.0,38.0,30.24,NW,319,0.0,-999.0,68,-99.99,,,-99.99,,2013-05-12 12:11:00,
2013-05-12 07:21:00,48.0,38.0,30.24,NW,319,0.0,-999.0,68,-99.99,,,-99.99,,2013-05-12 12:21:00,
2013-05-12 07:32:00,49.0,38.0,30.24,NW,311,0.0,-999.0,65,-99.99,,,-99.99,,2013-05-12 12:32:00,
2013-05-12 07:41:00,49.0,38.0,30.24,NW,311,0.0,-999.0,65,-99.99,,,-99.99,,2013-05-12 12:41:00,
2013-05-12 07:52:00,49.0,40.0,30.27,West,272,1.0,-999.0,72,-99.99,,,-99.99,,2013-05-12 12:52:00,
2013-05-12 08:01:00,49.0,40.0,30.27,West,274,0.0,-999.0,71,-99.99,,,-99.99,,2013-05-12 13:01:00,
2013-05-12 08:11:00,49.0,40.0,30.27,West,274,0.0,-999.0,71,-99.99,,,-99.99,,2013-05-12 13:11:00,
2013-05-12 08:21:00,52.0,39.0,30.28,West,274,0.0,-999.0,62,-99.99,,,-99.99,,2013-05-12 13:21:00,
2013-05-12 08:32:00,54.0,38.0,30.28,West,274,0.0,-999.0,54,-99.99,,,-99.99,,2013-05-12 13:32:00,
2013-05-12 08:41:00,54.0,38.0,30.28,West,274,0.0,-999.0,54,-99.99,,,-99.99,,2013-05-12 13:41:00,
2013-05-12 08:52:00,56.0,37.0,30.28,SSW,203,0.0,-999.0,48,-99.99,,,-99.99,,2013-05-12 13:52:00,
2013-05-12 09:01:00,57.0,37.0,30.28,ENE,69,0.0,-999.0,47,-99.99,,,-99.99,,2013-05-12 14:01:00,
2013-05-12 09:11:00,57.0,37.0,30.28,ENE,69,0.0,-999.0,47,-99.99,,,-99.99,,2013-05-12 14:11:00,
2013-05-12 09:21:00,58.0,37.0,30.28,ENE,59,0.0,-999.0,46,-99.99,,,-99.99,,2013-05-12 14:21:00,
2013-05-12 09:31:00,58.0,37.0,30.28,North,-999,-999.0,-999.0,46,-99.99,,,-99.99,,2013-05-12 14:31:00,
2013-05-12 09:42:00,59.0,36.0,30.29,North,-999,-999.0,-999.0,42,-99.99,,,-99.99,,2013-05-12 14:42:00,
2013-05-12 09:52:00,59.0,36.0,30.29,North,-999,-999.0,-999.0,42,-99.99,,,-99.99,,2013-05-12 14:52:00,
2013-05-12 10:01:00,59.0,36.0,30.29,North,-999,-999.0,-999.0,42,-99.99,,,-99.99,,2013-05-12 15:01:00,
2013-05-12 10:11:00,59.0,36.0,30.29,North,-999,-999.0,-999.0,42,-99.99,,,-99.99,,2013-05-12 15:11:00,
2013-05-12 10:53:00,63.0,29.0,30.27,ENE,78,0.0,-999.0,28,-99.99,,,-99.99,,2013-05-12 15:53:00,
2013-05-12 11:02:00,64.0,29.0,30.28,NNW,347,1.0,-999.0,27,-99.99,,,-99.99,,2013-05-12 16:02:00,
2013-05-12 11:12:00,64.0,31.0,30.27,SE,133,1.0,-999.0,29,-99.99,,,-99.99,,2013-05-12 16:12:00,
2013-05-12 11:23:00,64.0,31.0,30.27,SE,133,1.0,-999.0,29,-99.99,,,-99.99,,2013-05-12 16:23:00,
2013-05-12 11:32:00,65.0,31.0,30.27,South,191,0.0,-999.0,28,-99.99,,,-99.99,,2013-05-12 16:32:00,
2013-05-12 11:42:00,65.0,31.0,30.27,South,191,0.0,-999.0,28,-99.99,,,-99.99,,2013-05-12 16:42:00,
2013-05-12 11:52:00,66.0,33.0,30.26,SE,136,0.0,-999.0,29,-99.99,,,-99.99,,2013-05-12 16:52:00,
2013-05-12 12:02:00,67.0,30.0,30.26,South,171,0.0,-999.0,25,-99.99,,,-99.99,,2013-05-12 17:02:00,
2013-05-12 12:12:00,67.0,30.0,30.26,NNW,328,1.0,-999.0,25,-99.99,,,-99.99,,2013-05-12 17:12:00,
2013-05-12 12:22:00,67.0,30.0,30.26,NNW,328,1.0,-999.0,25,-99.99,,,-99.99,,2013-05-12 17:22:00,
2013-05-12 12:32:00,68.0,33.0,30.26,NW,306,0.0,-999.0,27,-99.99,,,-99.99,,2013-05-12 17:32:00,
2013-05-12 12:42:00,67.0,32.0,30.25,SSE,160,0.0,-999.0,27,-99.99,,,-99.99,,2013-05-12 17:42:00,
2013-05-12 12:52:00,67.0,32.0,30.25,SSE,160,0.0,-999.0,27,-99.99,,,-99.99,,2013-05-12 17:52:00,
2013-05-12 13:01:00,68.0,33.0,30.25,SE,143,0.0,-999.0,27,-99.99,,,-99.99,,2013-05-12 18:01:00,
2013-05-12 13:12:00,68.0,33.0,30.25,SE,143,0.0,-999.0,27,-99.99,,,-99.99,,2013-05-12 18:12:00,
2013-05-12 13:22:00,69.0,34.0,30.24,NNE,30,1.0,-999.0,27,-99.99,,,-99.99,,2013-05-12 18:22:00,
2013-05-12 13:32:00,70.0,32.0,30.24,SE,141,0.0,-999.0,24,-99.99,,,-99.99,,2013-05-12 18:32:00,
2013-05-12 13:42:00,70.0,32.0,30.24,SE,141,0.0,-999.0,24,-99.99,,,-99.99,,2013-05-12 18:42:00,
2013-05-12 13:52:00,69.0,32.0,30.22,West,271,0.0,-999.0,25,-99.99,,,-99.99,,2013-05-12 18:52:00,
2013-05-12 14:01:00,70.0,33.0,30.22,North,360,0.0,-999.0,25,-99.99,,,-99.99,,2013-05-12 19:01:00,
2013-05-12 14:11:00,70.0,33.0,30.22,North,360,0.0,-999.0,25,-99.99,,,-99.99,,2013-05-12 19:11:00,
2013-05-12 14:21:00,70.0,32.0,30.21,NE,45,0.0,-999.0,24,-99.99,,,-99.99,,2013-05-12 19:21:00,
2013-05-12 14:32:00,71.0,32.0,30.21,ENE,59,0.0,-999.0,24,-99.99,,,-99.99,,2013-05-12 19:32:00,
2013-05-12 14:42:00,71.0,33.0,30.21,NE,42,1.0,-999.0,25,-99.99,,,-99.99,,2013-05-12 19:42:00,
2013-05-12 14:52:00,71.0,33.0,30.21,NE,42,1.0,-999.0,25,-99.99,,,-99.99,,2013-05-12 19:52:00,
2013-05-12 15:02:00,72.0,34.0,30.21,ENE,76,0.0,-999.0,25,-99.99,,,-99.99,,2013-05-12 20:02:00,
2013-05-12 15:11:00,73.0,33.0,30.20,ENE,73,0.0,-999.0,23,-99.99,,,-99.99,,2013-05-12 20:11:00,
2013-05-12 15:21:00,73.0,33.0,30.20,ENE,73,0.0,-999.0,23,-99.99,,,-99.99,,2013-05-12 20:21:00,
2013-05-12 15:32:00,73.0,36.0,30.20,South,182,0.0,-999.0,26,-99.99,,,-99.99,,2013-05-12 20:32:00,
2013-05-12 15:42:00,72.0,37.0,30.19,South,184,1.0,-999.0,28,-99.99,,,-99.99,,2013-05-12 20:42:00,
2013-05-12 15:52:00,72.0,37.0,30.19,South,184,1.0,-999.0,28,-99.99,,,-99.99,,2013-05-12 20:52:00,
2013-05-12 16:01:00,71.0,36.0,30.19,SSE,157,1.0,-999.0,28,-99.99,,,-99.99,,2013-05-12 21:01:00,
2013-05-12 16:11:00,71.0,34.0,30.20,SSW,192,0.0,-999.0,26,-99.99,,,-99.99,,2013-05-12 21:11:00,
2013-05-12 16:21:00,71.0,34.0,30.20,SSW,192,0.0,-999.0,26,-99.99,,,-99.99,,2013-05-12 21:21:00,
2013-05-12 16:33:00,71.0,34.0,30.20,SE,134,0.0,-999.0,26,-99.99,,,-99.99,,2013-05-12 21:33:00,
2013-05-12 16:42:00,71.0,34.0,30.20,SE,134,0.0,-999.0,26,-99.99,,,-99.99,,2013-05-12 21:42:00,
2013-05-12 16:53:00,71.0,35.0,30.20,SSE,152,0.0,-999.0,27,-99.99,,,-99.99,,2013-05-12 21:53:00,
2013-05-12 17:02:00,71.0,36.0,30.20,NNE,31,0.0,-999.0,28,-99.99,,,-99.99,,2013-05-12 22:02:00,
2013-05-12 17:12:00,72.0,36.0,30.19,SSW,196,1.0,-999.0,27,-99.99,,,-99.99,,2013-05-12 22:12:00,
2013-05-12 17:23:00,72.0,36.0,30.19,SSW,196,1.0,-999.0,27,-99.99,,,-99.99,,2013-05-12 22:23:00,
2013-05-12 17:32:00,72.0,37.0,30.19,ESE,109,1.0,-999.0,28,-99.99,,,-99.99,,2013-05-12 22:32:00,
2013-05-12 17:42:00,72.0,37.0,30.19,ESE,109,1.0,-999.0,28,-99.99,,,-99.99,,2013-05-12 22:42:00,
2013-05-12 17:52:00,71.0,36.0,30.17,South,172,1.0,-999.0,28,-99.99,,,-99.99,,2013-05-12 22:52:00,
2013-05-12 18:02:00,71.0,36.0,30.17,SSE,167,1.0,-999.0,28,-99.99,,,-99.99,,2013-05-12 23:02:00,
2013-05-12 18:12:00,71.0,38.0,30.16,SSE,161,1.0,-999.0,30,-99.99,,,-99.99,,2013-05-12 23:12:00,
2013-05-12 18:22:00,71.0,38.0,30.16,SSE,161,1.0,-999.0,30,-99.99,,,-99.99,,2013-05-12 23:22:00,
2013-05-12 18:32:00,72.0,38.0,30.16,SSE,164,0.0,-999.0,29,-99.99,,,-99.99,,2013-05-12 23:32:00,
2013-05-12 18:42:00,72.0,38.0,30.16,SSE,164,0.0,-999.0,29,-99.99,,,-99.99,,2013-05-12 23:42:00,
2013-05-12 18:52:00,71.0,37.0,30.15,SE,136,0.0,-999.0,29,-99.99,,,-99.99,,2013-05-12 23:52:00,
2013-05-12 19:01:00,70.0,37.0,30.15,SSE,165,0.0,-999.0,30,-99.99,,,-99.99,,2013-05-13 00:01:00,
2013-05-12 19:11:00,70.0,37.0,30.15,SSE,165,0.0,-999.0,30,-99.99,,,-99.99,,2013-05-13 00:11:00,
2013-05-12 19:21:00,70.0,36.0,30.14,SSE,158,1.0,-999.0,29,-99.99,,,-99.99,,2013-05-13 00:21:00,
2013-05-12 19:32:00,69.0,36.0,30.14,South,184,1.0,-999.0,30,-99.99,,,-99.99,,2013-05-13 00:32:00,
2013-05-12 19:41:00,69.0,37.0,30.13,SE,124,1.0,-999.0,31,-99.99,,,-99.99,,2013-05-13 00:41:00,
2013-05-12 19:52:00,69.0,37.0,30.13,SE,124,1.0,-999.0,31,-99.99,,,-99.99,,2013-05-13 00:52:00,
2013-05-12 20:01:00,68.0,39.0,30.13,ESE,109,1.0,-999.0,34,-99.99,,,-99.99,,2013-05-13 01:01:00,
2013-05-12 20:11:00,68.0,39.0,30.13,ESE,109,1.0,-999.0,34,-99.99,,,-99.99,,2013-05-13 01:11:00,
2013-05-12 20:22:00,67.0,40.0,30.14,SSE,154,0.0,-999.0,37,-99.99,,,-99.99,,2013-05-13 01:22:00,
2013-05-12 20:31:00,67.0,41.0,30.14,SE,144,0.0,-999.0,39,-99.99,,,-99.99,,2013-05-13 01:31:00,
2013-05-12 20:41:00,67.0,41.0,30.14,SE,144,0.0,-999.0,39,-99.99,,,-99.99,,2013-05-13 01:41:00,
2013-05-12 20:52:00,65.0,43.0,30.13,East,93,0.0,-999.0,44,-99.99,,,-99.99,,2013-05-13 01:52:00,
2013-05-12 21:01:00,63.0,43.0,30.12,SE,138,0.0,-999.0,48,-99.99,,,-99.99,,2013-05-13 02:01:00,
2013-05-12 21:11:00,63.0,43.0,30.12,SE,138,0.0,-999.0,48,-99.99,,,-99.99,,2013-05-13 02:11:00,
2013-05-12 21:21:00,62.0,43.0,30.14,ESE,123,1.0,-999.0,50,-99.99,,,-99.99,,2013-05-13 02:21:00,
2013-05-12 21:31:00,62.0,44.0,30.14,SE,130,0.0,-999.0,51,-99.99,,,-99.99,,2013-05-13 02:31:00,
2013-05-12 21:41:00,62.0,44.0,30.14,SE,130,0.0,-999.0,51,-99.99,,,-99.99,,2013-05-13 02:41:00,
2013-05-12 21:52:00,61.0,43.0,30.14,SE,136,0.0,-999.0,52,-99.99,,,-99.99,,2013-05-13 02:52:00,
2013-05-12 22:01:00,61.0,44.0,30.14,SE,136,0.0,-999.0,53,-99.99,,,-99.99,,2013-05-13 03:01:00,
2013-05-12 22:11:00,60.0,44.0,30.14,SE,131,0.0,-999.0,55,-99.99,,,-99.99,,2013-05-13 03:11:00,
2013-05-12 22:21:00,60.0,44.0,30.14,SE,131,0.0,-999.0,55,-99.99,,,-99.99,,2013-05-13 03:21:00,
2013-05-12 22:32:00,60.0,44.0,30.14,SE,127,0.0,-999.0,56,-99.99,,,-99.99,,2013-05-13 03:32:00,
2013-05-12 22:42:00,60.0,44.0,30.14,SE,127,0.0,-999.0,56,-99.99,,,-99.99,,2013-05-13 03:42:00,
2013-05-12 22:53:00,59.0,44.0,30.14,SE,130,0.0,-999.0,58,-99.99,,,-99.99,,2013-05-13 03:53:00,
2013-05-12 23:02:00,59.0,44.0,30.14,SE,140,0.0,-999.0,58,-99.99,,,-99.99,,2013-05-13 04:02:00,
2013-05-12 23:12:00,59.0,44.0,30.14,SE,140,0.0,-999.0,58,-99.99,,,-99.99,,2013-05-13 04:12:00,
2013-05-12 23:23:00,59.0,45.0,30.13,SE,145,0.0,-999.0,59,-99.99,,,-99.99,,2013-05-13 04:23:00,
2013-05-12 23:32:00,59.0,45.0,30.13,SE,137,0.0,-999.0,60,-99.99,,,-99.99,,2013-05-13 04:32:00,
2013-05-12 23:42:00,59.0,45.0,30.13,SE,137,0.0,-999.0,60,-99.99,,,-99.99,,2013-05-13 04:42:00,
2013-05-12 23:52:00,58.0,45.0,30.13,SE,134,0.0,-999.0,63,-99.99,,,-99.99,,2013-05-13 04:52:00,